createdAt,value
2023-01-06T00:00:15.448Z,7.35
2023-01-06T00:03:11.990Z,10.27
2023-01-06T00:06:09.081Z,5.82
2023-01-06T00:08:58.924Z,7.93
2023-01-06T00:11:45.675Z,6.72
2023-01-06T00:14:31.706Z,8.27
2023-01-06T00:17:18.226Z,8.00
2023-01-06T00:20:05.218Z,10.98
2023-01-06T00:22:51.301Z,11.05
2023-01-06T00:25:37.487Z,7.65
2023-01-06T00:28:23.751Z,8.65
2023-01-06T00:34:45.019Z,8.77
2023-01-06T00:37:32.730Z,8.23
2023-01-06T00:40:22.997Z,7.90
2023-01-06T00:43:09.747Z,10.57
2023-01-06T00:49:08.155Z,7.75
2023-01-06T00:54:40.710Z,9.20
2023-01-06T00:57:27.493Z,9.02
2023-01-06T01:00:14.066Z,8.63
2023-01-06T01:03:01.090Z,10.60
2023-01-06T01:05:47.254Z,8.40
2023-01-06T01:08:33.925Z,10.38
2023-01-06T01:11:38.508Z,7.38
2023-01-06T01:17:31.760Z,6.93
2023-01-06T01:23:45.362Z,8.98
2023-01-06T01:26:35.940Z,10.00
2023-01-06T01:29:44.215Z,7.43
2023-01-06T01:32:30.873Z,8.05
2023-01-06T01:35:17.462Z,6.47
2023-01-06T01:38:04.423Z,8.90
2023-01-06T01:40:51.160Z,10.32
2023-01-06T01:43:47.154Z,8.00
2023-01-06T01:46:38.855Z,9.80
2023-01-06T01:49:27.107Z,7.68
2023-01-06T01:52:13.956Z,7.72
2023-01-06T01:55:00.791Z,8.48
2023-01-06T01:57:54.795Z,7.00
2023-01-06T02:00:43.116Z,10.43
2023-01-06T02:03:29.825Z,7.15
2023-01-06T02:06:21.248Z,9.43
2023-01-06T02:09:28.390Z,8.65
2023-01-06T02:12:15.618Z,6.82
2023-01-06T02:15:02.036Z,10.13
2023-01-06T02:17:51.295Z,7.70
2023-01-06T02:20:46.726Z,9.63
2023-01-06T02:23:51.274Z,7.72
2023-01-06T02:26:56.405Z,7.43
2023-01-06T02:30:01.293Z,8.18
2023-01-06T02:32:54.347Z,11.10
2023-01-06T02:36:01.217Z,7.82
2023-01-06T02:38:58.079Z,8.93
2023-01-06T02:41:49.120Z,13.90
2023-01-06T02:44:50.643Z,6.72
2023-01-06T02:47:46.292Z,10.20
2023-01-06T02:51:02.339Z,7.75
2023-01-06T02:54:22.078Z,14.82
2023-01-06T02:57:20.091Z,5.93
2023-01-06T03:00:17.591Z,6.50
2023-01-06T03:03:09.900Z,7.55
2023-01-06T03:06:00.618Z,13.23
2023-01-06T03:08:49.696Z,7.20
2023-01-06T03:11:37.753Z,9.27
2023-01-06T03:14:27.131Z,9.00
2023-01-06T03:17:13.440Z,10.70
2023-01-06T03:20:03.240Z,10.40
2023-01-06T03:22:51.490Z,11.50
2023-01-06T03:25:39.251Z,7.53
2023-01-06T03:28:28.436Z,10.40
2023-01-06T03:31:21.940Z,9.60
2023-01-06T03:34:26.896Z,11.00
2023-01-06T03:37:32.820Z,8.57
2023-01-06T03:40:25.950Z,9.70
2023-01-06T03:43:22.120Z,7.43
2023-01-06T03:46:21.106Z,10.30
2023-01-06T03:49:10.905Z,7.88
2023-01-06T03:52:38.947Z,8.70
2023-01-06T03:55:31.708Z,10.50
2023-01-06T03:58:20.814Z,9.18
2023-01-06T04:01:09.692Z,5.22
2023-01-06T04:03:57.396Z,7.97
2023-01-06T04:06:47.132Z,7.20
2023-01-06T04:09:34.155Z,9.75
2023-01-06T04:12:52.933Z,9.23
2023-01-06T04:15:44.400Z,9.57
2023-01-06T04:18:33.514Z,7.20
2023-01-06T04:21:20.793Z,7.73
2023-01-06T04:24:07.313Z,10.90
2023-01-06T04:26:56.123Z,8.48
2023-01-06T04:29:49.835Z,6.70
2023-01-06T04:32:39.845Z,10.48
2023-01-06T04:35:28.069Z,9.80
2023-01-06T04:38:14.906Z,12.15
2023-01-06T04:41:01.192Z,11.05
2023-01-06T04:43:47.379Z,9.68
2023-01-06T04:46:33.422Z,11.65
2023-01-06T04:49:19.743Z,10.73
2023-01-06T04:52:07.720Z,7.50
2023-01-06T04:54:55.361Z,16.35
2023-01-06T05:00:44.309Z,12.02
2023-01-06T05:03:31.656Z,17.50
2023-01-06T05:06:18.740Z,13.45
2023-01-06T05:09:09.222Z,11.82
2023-01-06T05:11:55.777Z,11.50
2023-01-06T05:14:43.256Z,6.80
2023-01-06T05:17:29.995Z,11.07
2023-01-06T05:20:16.780Z,9.52
2023-01-06T05:23:03.453Z,9.98
2023-01-06T05:26:16.577Z,14.77
2023-01-06T05:29:41.275Z,11.17
2023-01-06T05:38:45.612Z,11.23
2023-01-06T05:41:31.985Z,13.60
2023-01-06T05:44:20.665Z,13.02
2023-01-06T05:47:09.136Z,10.40
2023-01-06T05:49:56.517Z,14.88
2023-01-06T05:52:44.398Z,14.07
2023-01-06T05:55:31.027Z,15.68
2023-01-06T05:58:17.764Z,15.37
2023-01-06T06:01:05.249Z,14.40
2023-01-06T06:03:52.574Z,15.55
2023-01-06T06:06:39.059Z,14.33
2023-01-06T06:09:25.351Z,14.67
2023-01-06T06:12:11.566Z,16.02
2023-01-06T06:14:57.877Z,13.25
2023-01-06T06:17:44.544Z,15.20
2023-01-06T06:23:53.313Z,14.87
2023-01-06T06:26:39.969Z,16.23
2023-01-06T06:29:26.492Z,17.77
2023-01-06T06:32:12.743Z,16.00
2023-01-06T06:34:59.377Z,14.63
2023-01-06T06:37:45.574Z,13.43
2023-01-06T06:40:32.092Z,17.13
2023-01-06T06:43:20.262Z,12.70
2023-01-06T06:46:07.382Z,16.77
2023-01-06T06:48:53.778Z,14.43
2023-01-06T06:51:40.463Z,18.20
2023-01-06T06:54:27.000Z,13.80
2023-01-06T06:57:13.626Z,16.63
2023-01-06T07:00:00.166Z,24.77
2023-01-06T07:02:50.356Z,16.73
2023-01-06T07:05:36.941Z,17.80
2023-01-06T07:08:23.289Z,17.38
2023-01-06T07:11:09.582Z,28.77
2023-01-06T07:13:56.017Z,20.10
2023-01-06T07:16:42.513Z,28.70
2023-01-06T07:19:29.030Z,19.80
2023-01-06T07:22:15.889Z,21.57
2023-01-06T07:25:02.389Z,16.87
2023-01-06T07:27:48.607Z,20.30
2023-01-06T07:30:35.251Z,17.70
2023-01-06T07:33:22.262Z,14.40
2023-01-06T07:36:08.951Z,17.47
2023-01-06T07:38:55.423Z,20.90
2023-01-06T07:41:41.839Z,23.90
2023-01-06T07:44:31.315Z,22.43
2023-01-06T07:47:17.518Z,28.93
2023-01-06T07:50:04.185Z,38.40
2023-01-06T07:52:50.605Z,33.03
2023-01-06T07:55:36.897Z,45.75
2023-01-06T07:58:26.759Z,32.57
2023-01-06T08:01:13.532Z,26.33
2023-01-06T08:03:59.872Z,24.67
2023-01-06T08:06:46.215Z,26.17
2023-01-06T08:09:32.573Z,24.63
2023-01-06T08:12:19.327Z,18.63
2023-01-06T08:15:05.805Z,23.58
2023-01-06T08:17:57.021Z,20.42
2023-01-06T08:20:43.287Z,24.30
2023-01-06T08:23:30.320Z,24.02
2023-01-06T08:26:17.970Z,23.00
2023-01-06T08:29:04.623Z,16.90
2023-01-06T08:31:56.749Z,16.25
2023-01-06T08:34:45.797Z,12.23
2023-01-06T08:37:32.536Z,19.13
2023-01-06T08:40:19.547Z,14.77
2023-01-06T08:43:06.072Z,15.52
2023-01-06T08:45:52.650Z,14.98
2023-01-06T08:48:39.060Z,17.50
2023-01-06T08:51:25.858Z,24.48
2023-01-06T08:54:12.120Z,20.73
2023-01-06T08:56:58.325Z,15.75
2023-01-06T08:59:44.938Z,17.33
2023-01-06T09:02:31.707Z,17.80
2023-01-06T09:05:18.456Z,21.83
2023-01-06T09:08:05.173Z,13.27
2023-01-06T09:10:52.269Z,23.02
2023-01-06T09:13:38.431Z,33.42
2023-01-06T09:16:25.025Z,21.27
2023-01-06T09:19:11.852Z,26.83
2023-01-06T09:22:00.230Z,27.77
2023-01-06T09:24:47.432Z,25.98
2023-01-06T09:27:33.900Z,24.92
2023-01-06T09:30:20.308Z,24.85
2023-01-06T09:33:06.851Z,24.73
2023-01-06T09:35:53.202Z,23.65
2023-01-06T09:38:39.691Z,30.58
2023-01-06T09:41:32.739Z,29.13
2023-01-06T09:44:25.550Z,34.72
2023-01-06T09:47:14.881Z,30.38
2023-01-06T09:50:15.546Z,25.45
2023-01-06T09:53:05.023Z,29.00
2023-01-06T09:55:58.266Z,21.92
2023-01-06T09:59:09.707Z,18.75
2023-01-06T10:02:00.071Z,22.92
2023-01-06T10:04:46.634Z,22.20
2023-01-06T10:07:45.458Z,20.38
2023-01-06T10:28:52.361Z,17.48
2023-01-06T10:31:41.718Z,19.45
2023-01-06T10:34:29.424Z,15.20
2023-01-06T10:37:20.011Z,18.33
2023-01-06T10:40:12.675Z,21.48
2023-01-06T10:43:03.010Z,20.98
2023-01-06T10:45:50.305Z,19.98
2023-01-06T10:48:37.037Z,21.75
2023-01-06T10:51:26.735Z,24.98
2023-01-06T10:54:15.852Z,22.48
2023-01-06T10:57:07.304Z,18.15
2023-01-06T11:00:10.461Z,15.18
2023-01-06T11:08:48.217Z,22.17
2023-01-06T11:11:34.713Z,25.48
2023-01-06T11:14:24.376Z,20.33
2023-01-06T11:17:14.387Z,30.40
2023-01-06T11:20:27.753Z,23.98
2023-01-06T11:23:24.044Z,22.08
2023-01-06T11:26:10.596Z,22.55
2023-01-06T11:28:56.845Z,25.45
2023-01-06T11:31:48.307Z,25.58
2023-01-06T11:34:34.891Z,25.90
2023-01-06T11:37:36.609Z,19.23
2023-01-06T11:40:25.679Z,20.08
2023-01-06T11:43:32.772Z,20.48
2023-01-06T11:46:22.081Z,22.33
2023-01-06T11:49:11.911Z,15.85
2023-01-06T11:52:16.895Z,19.75
2023-01-06T11:55:09.661Z,17.23
2023-01-06T11:57:59.059Z,16.02
2023-01-06T12:00:53.393Z,30.95
2023-01-06T12:03:41.836Z,24.52
2023-01-06T12:06:34.701Z,37.03
2023-01-06T12:12:08.552Z,48.17
2023-01-06T12:14:55.366Z,51.60
2023-01-06T12:17:49.362Z,40.20
2023-01-06T12:20:41.833Z,39.25
2023-01-06T12:23:40.070Z,45.80
2023-01-06T12:26:26.548Z,52.78
2023-01-06T12:29:21.131Z,38.85
2023-01-06T12:32:18.602Z,21.77
2023-01-06T12:35:06.997Z,20.48
2023-01-06T12:40:56.488Z,22.73
2023-01-06T12:43:44.838Z,22.15
2023-01-06T12:46:35.303Z,22.08
2023-01-06T12:49:55.391Z,22.52
2023-01-06T12:52:52.900Z,17.73
2023-01-06T12:55:59.621Z,20.55
2023-01-06T12:58:49.079Z,22.60
2023-01-06T13:01:54.237Z,18.42
2023-01-06T13:04:59.777Z,14.70
2023-01-06T13:07:46.559Z,12.60
2023-01-06T13:10:44.087Z,14.95
2023-01-06T13:13:48.734Z,13.25
2023-01-06T13:16:38.502Z,19.88
2023-01-06T13:19:40.558Z,12.13
2023-01-06T13:22:45.501Z,17.45
2023-01-06T13:25:50.558Z,12.60
2023-01-06T13:28:40.288Z,14.45
2023-01-06T13:31:27.741Z,15.55
2023-01-06T13:34:19.443Z,13.43
2023-01-06T13:37:24.071Z,14.88
2023-01-06T13:40:13.568Z,13.80
2023-01-06T13:43:19.658Z,15.35
2023-01-06T13:46:07.748Z,14.27
2023-01-06T14:09:56.111Z,19.45
2023-01-06T14:13:02.677Z,15.55
2023-01-06T14:18:58.754Z,12.30
2023-01-06T14:24:36.217Z,19.50
2023-01-06T14:27:41.570Z,16.33
2023-01-06T14:30:33.314Z,21.55
2023-01-06T14:33:23.884Z,18.73
2023-01-06T14:36:17.771Z,17.10
2023-01-06T14:39:05.934Z,18.23
2023-01-06T14:41:56.110Z,17.42
2023-01-06T14:44:47.572Z,15.10
2023-01-06T14:47:45.187Z,23.00
2023-01-06T14:50:46.164Z,20.95
2023-01-06T14:53:37.321Z,19.10
2023-01-06T14:56:25.245Z,15.30
2023-01-06T14:59:16.130Z,20.90
2023-01-06T15:02:03.533Z,17.92
2023-01-06T15:04:57.594Z,18.48
2023-01-06T15:07:56.225Z,20.08
2023-01-06T15:10:43.271Z,18.48
2023-01-06T15:13:31.593Z,18.13
2023-01-06T15:16:18.370Z,17.63
2023-01-06T15:19:08.851Z,19.23
2023-01-06T15:21:55.515Z,17.70
2023-01-06T15:24:43.285Z,20.83
2023-01-06T15:27:32.670Z,16.90
2023-01-06T15:30:20.480Z,22.08
2023-01-06T15:33:06.999Z,16.70
2023-01-06T15:35:53.990Z,23.88
2023-01-06T15:38:41.889Z,21.42
2023-01-06T15:41:33.925Z,18.10
2023-01-06T15:44:27.723Z,23.95
2023-01-06T15:47:13.984Z,22.13
2023-01-06T15:50:02.614Z,16.30
2023-01-06T15:52:53.992Z,26.40
2023-01-06T15:55:43.687Z,21.23
2023-01-06T15:58:32.215Z,18.23
2023-01-06T16:01:20.643Z,27.30
2023-01-06T16:04:07.227Z,19.80
2023-01-06T16:06:53.560Z,25.23
2023-01-06T16:09:39.915Z,17.00
2023-01-06T16:16:02.301Z,28.75
2023-01-06T16:18:48.844Z,31.98
2023-01-06T16:21:35.708Z,30.33
2023-01-06T16:24:23.446Z,26.00
2023-01-06T16:27:09.594Z,35.13
2023-01-06T16:30:11.204Z,23.40
2023-01-06T16:33:00.315Z,23.08
2023-01-06T16:35:46.507Z,29.23
2023-01-06T16:38:32.808Z,28.58
2023-01-06T16:41:19.899Z,28.10
2023-01-06T16:44:06.050Z,29.10
2023-01-06T16:46:52.327Z,24.75
2023-01-06T16:49:38.405Z,21.17
2023-01-06T16:52:26.280Z,28.90
2023-01-06T16:55:13.760Z,24.70
2023-01-06T16:58:00.638Z,22.70
2023-01-06T17:00:51.932Z,22.35
2023-01-06T17:03:38.885Z,24.10
2023-01-06T17:06:28.675Z,20.85
2023-01-06T17:09:18.373Z,23.30
2023-01-06T17:12:09.663Z,18.73
2023-01-06T17:14:55.843Z,23.98
2023-01-06T17:17:42.105Z,20.92
2023-01-06T17:20:29.260Z,29.20
2023-01-06T17:23:15.478Z,15.68
2023-01-06T17:26:03.400Z,19.08
2023-01-06T17:28:50.584Z,15.45
2023-01-06T17:31:40.547Z,16.83
2023-01-06T17:34:31.987Z,17.35
2023-01-06T17:37:25.860Z,14.88
2023-01-06T17:40:16.315Z,17.75
2023-01-06T17:43:04.028Z,20.05
2023-01-06T17:45:50.971Z,20.23
2023-01-06T17:48:37.652Z,19.55
2023-01-06T17:51:24.098Z,16.67
2023-01-06T17:54:36.241Z,17.67
2023-01-06T17:57:22.705Z,17.50
2023-01-06T18:00:16.625Z,23.67
2023-01-06T18:03:03.771Z,16.50
2023-01-06T18:05:50.168Z,18.02
2023-01-06T18:08:38.292Z,20.38
2023-01-06T18:11:26.705Z,21.52
2023-01-06T18:14:18.895Z,23.20
2023-01-06T18:17:34.212Z,24.27
2023-01-06T18:20:20.586Z,24.67
2023-01-06T18:23:17.178Z,28.75
2023-01-06T18:26:07.706Z,24.60
2023-01-06T18:29:03.059Z,25.02
2023-01-06T18:31:51.107Z,23.47
2023-01-06T18:34:40.709Z,24.52
2023-01-06T18:37:28.876Z,17.88
2023-01-06T18:40:19.867Z,22.25
2023-01-06T18:43:20.301Z,18.08
2023-01-06T18:46:15.846Z,18.50
2023-01-06T18:49:02.026Z,18.08
2023-01-06T18:51:48.245Z,15.33
2023-01-06T18:54:35.048Z,23.70
2023-01-06T18:57:32.204Z,22.15
2023-01-06T19:00:31.764Z,21.90
2023-01-06T19:03:24.039Z,18.33
2023-01-06T19:06:10.119Z,16.02
2023-01-06T19:08:56.743Z,27.08
2023-01-06T19:11:43.085Z,17.20
2023-01-06T19:14:30.416Z,20.73
2023-01-06T19:17:20.721Z,18.75
2023-01-06T19:20:37.531Z,22.05
2023-01-06T19:23:24.989Z,26.05
2023-01-06T19:26:29.865Z,21.33
2023-01-06T19:29:17.275Z,20.23
2023-01-06T19:32:06.014Z,24.48
2023-01-06T19:38:38.815Z,21.70
2023-01-06T19:41:33.143Z,21.92
2023-01-06T19:44:19.633Z,17.63
2023-01-06T19:47:26.184Z,19.33
2023-01-06T19:50:23.287Z,22.20
2023-01-06T19:53:24.481Z,21.25
2023-01-06T19:56:18.239Z,20.15
2023-01-06T19:59:10.820Z,22.08
2023-01-06T20:02:04.536Z,20.13
2023-01-06T20:04:51.057Z,26.17
2023-01-06T20:07:37.359Z,18.85
2023-01-06T20:10:23.423Z,23.10
2023-01-06T20:13:09.496Z,24.60
2023-01-06T20:15:55.687Z,23.40
2023-01-06T20:18:41.757Z,18.92
2023-01-06T20:21:28.280Z,24.38
2023-01-06T20:24:14.998Z,19.85
2023-01-06T20:27:00.990Z,14.37
2023-01-06T20:29:47.370Z,23.97
2023-01-06T20:32:33.283Z,25.83
2023-01-06T20:35:20.329Z,20.38
2023-01-06T20:38:06.408Z,25.65
2023-01-06T20:40:52.696Z,20.53
2023-01-06T20:43:39.078Z,21.27
2023-01-06T20:46:25.295Z,24.17
2023-01-06T20:49:13.198Z,20.98
2023-01-06T20:52:32.698Z,18.20
2023-01-06T20:55:18.660Z,20.17
2023-01-06T20:58:04.904Z,23.33
2023-01-06T21:00:51.289Z,23.10
2023-01-06T21:03:37.878Z,23.33
2023-01-06T21:06:24.320Z,18.27
2023-01-06T21:09:10.806Z,25.63
2023-01-06T21:12:00.127Z,19.03
2023-01-06T21:14:46.966Z,19.30
2023-01-06T21:17:33.315Z,21.27
2023-01-06T21:20:19.745Z,17.05
2023-01-06T21:23:06.139Z,18.35
2023-01-06T21:25:52.556Z,21.03
2023-01-06T21:28:39.101Z,16.27
2023-01-06T21:31:25.403Z,18.23
2023-01-06T21:34:11.824Z,14.67
2023-01-06T21:36:58.075Z,18.43
2023-01-06T21:40:21.998Z,17.67
2023-01-06T21:43:08.679Z,18.53
2023-01-06T21:45:55.103Z,16.30
2023-01-06T21:48:43.424Z,18.23
2023-01-06T21:51:29.720Z,15.37
2023-01-06T21:54:16.042Z,18.27
2023-01-06T21:57:02.615Z,16.40
2023-01-06T21:59:48.785Z,18.03
2023-01-06T22:02:35.198Z,17.50
2023-01-06T22:05:21.921Z,17.17
2023-01-06T22:08:08.370Z,18.80
2023-01-06T22:10:55.551Z,17.10
2023-01-06T22:13:42.307Z,13.93
2023-01-06T22:16:28.989Z,18.43
2023-01-06T22:19:16.387Z,16.70
2023-01-06T22:22:03.370Z,16.47
2023-01-06T22:24:51.388Z,21.97
2023-01-06T22:27:37.588Z,21.43
2023-01-06T22:30:24.779Z,18.03
2023-01-06T22:33:11.018Z,17.97
2023-01-06T22:35:58.348Z,12.07
2023-01-06T22:38:44.580Z,17.97
2023-01-06T22:41:31.026Z,16.40
2023-01-06T22:44:17.221Z,17.30
2023-01-06T22:47:04.391Z,17.90
2023-01-06T22:49:51.042Z,19.17
2023-01-06T22:52:37.346Z,17.77
2023-01-06T22:55:23.894Z,18.73
2023-01-06T22:58:10.181Z,19.97
2023-01-06T23:00:56.472Z,30.50
2023-01-06T23:03:42.995Z,27.47
2023-01-06T23:06:29.007Z,19.40
2023-01-06T23:09:15.421Z,19.73
2023-01-06T23:12:02.071Z,23.80
2023-01-06T23:14:48.158Z,18.53
2023-01-06T23:17:34.585Z,17.60
2023-01-06T23:20:21.276Z,15.63
2023-01-06T23:23:07.373Z,14.47
2023-01-06T23:25:53.709Z,14.13
2023-01-06T23:28:40.392Z,16.33
2023-01-06T23:31:28.049Z,15.27
2023-01-06T23:34:18.461Z,19.27
2023-01-06T23:37:04.946Z,18.27
2023-01-06T23:39:53.456Z,20.67
2023-01-06T23:42:48.127Z,18.57
2023-01-06T23:45:34.737Z,17.30
2023-01-06T23:48:20.877Z,10.03
2023-01-06T23:51:07.831Z,13.32
2023-01-06T23:53:54.379Z,17.23
2023-01-06T23:56:40.737Z,20.03
2023-01-06T23:59:26.993Z,14.07
